Darlington, South Carolina
Current Conditions -  °F | °C
As of 12:55 AM on Wednesday 22 Oct 2014 (Local Time) from KUDG Reporting Station
Overcast Overcast  
Wind Chill: 15°   Ceiling: 7000
Heat Index: 15°   Visibility: 10mi
Dew Point:   Wind: 9mph
Humidity: 51%   Direction: 350°N
Pressure: 29.96"   Gusts: NA
Location:  34.3°N, 79.87°W
Report Text: KUDG 220455Z AUTO 35008KT 10SM OVC070 15/05 A2996 RMK AO1
Loading
Personal Weather Stations






























Interactive Weather Map New forecast layout! Learn more

10-Day Weather Forecast

Advertisements
Track Severe Weather on mobile